createdAt,value
2023-02-22T00:01:20.845Z,24.44
2023-02-22T00:03:54.034Z,24.24
2023-02-22T00:06:26.629Z,23.81
2023-02-22T00:08:57.253Z,23.42
2023-02-22T00:11:26.947Z,23.08
2023-02-22T00:13:59.664Z,22.87
2023-02-22T00:16:29.673Z,22.61
2023-02-22T00:18:59.355Z,22.38
2023-02-22T00:21:29.136Z,22.27
2023-02-22T00:23:58.836Z,22.14
2023-02-22T00:26:29.367Z,22.09
2023-02-22T00:28:59.180Z,22.02
2023-02-22T00:31:28.944Z,21.92
2023-02-22T00:33:58.707Z,21.83
2023-02-22T00:36:28.357Z,21.72
2023-02-22T00:38:58.129Z,21.62
2023-02-22T00:41:27.850Z,21.57
2023-02-22T00:43:57.652Z,21.47
2023-02-22T00:46:27.364Z,21.39
2023-02-22T00:48:56.997Z,21.34
2023-02-22T00:51:28.922Z,21.40
2023-02-22T00:53:58.640Z,21.31
2023-02-22T00:56:28.337Z,21.40
2023-02-22T00:58:58.308Z,21.26
2023-02-22T01:01:28.080Z,21.20
2023-02-22T01:03:58.027Z,21.17
2023-02-22T01:06:27.991Z,21.14
2023-02-22T01:08:57.611Z,21.13
2023-02-22T01:11:27.515Z,21.08
2023-02-22T01:13:58.265Z,21.00
2023-02-22T01:16:28.303Z,20.99
2023-02-22T01:18:58.039Z,20.96
2023-02-22T01:21:27.697Z,20.98
2023-02-22T01:23:57.379Z,20.95
2023-02-22T01:26:27.052Z,20.95
2023-02-22T01:28:56.644Z,20.90
2023-02-22T01:31:26.283Z,20.88
2023-02-22T01:33:56.075Z,20.89
2023-02-22T01:36:25.671Z,20.88
2023-02-22T01:38:55.379Z,20.78
2023-02-22T01:41:25.179Z,20.83
2023-02-22T01:43:54.957Z,20.79
2023-02-22T01:46:29.112Z,20.77
2023-02-22T01:49:07.558Z,20.86
2023-02-22T01:51:39.651Z,20.89
2023-02-22T01:54:23.818Z,20.85
2023-02-22T01:57:14.629Z,20.82
2023-02-22T01:59:46.684Z,20.83
2023-02-22T02:02:16.390Z,20.83
2023-02-22T02:04:46.010Z,20.78
2023-02-22T02:07:16.722Z,20.76
2023-02-22T02:09:55.548Z,20.73
2023-02-22T02:12:25.308Z,20.77
2023-02-22T02:14:55.061Z,20.72
2023-02-22T02:17:24.946Z,20.73
2023-02-22T02:19:57.454Z,20.65
2023-02-22T02:22:38.434Z,20.67
2023-02-22T02:25:11.043Z,20.76
2023-02-22T02:28:17.387Z,20.77
2023-02-22T02:31:14.736Z,20.81
2023-02-22T02:34:01.685Z,20.97
2023-02-22T02:36:43.875Z,20.85
2023-02-22T02:40:02.236Z,20.75
2023-02-22T02:42:36.934Z,20.67
2023-02-22T02:45:13.635Z,20.69
2023-02-22T02:47:48.377Z,20.64
2023-02-22T02:50:33.037Z,20.61
2023-02-22T02:53:04.675Z,20.58
2023-02-22T02:55:34.382Z,20.60
2023-02-22T02:58:06.371Z,20.57
2023-02-22T03:00:41.797Z,20.58
2023-02-22T03:03:26.620Z,20.56
2023-02-22T03:06:18.238Z,20.56
2023-02-22T03:08:51.932Z,20.57
2023-02-22T03:11:29.117Z,20.63
2023-02-22T03:14:17.002Z,20.83
2023-02-22T03:16:51.901Z,20.99
2023-02-22T03:19:39.806Z,20.85
2023-02-22T03:22:27.474Z,21.42
2023-02-22T03:25:08.661Z,21.18
2023-02-22T03:27:46.336Z,21.59
2023-02-22T03:30:32.564Z,21.78
2023-02-22T03:33:25.591Z,21.98
2023-02-22T03:36:01.351Z,21.98
2023-02-22T03:38:32.078Z,21.85
2023-02-22T03:41:03.208Z,21.68
2023-02-22T03:43:36.828Z,21.41
2023-02-22T03:46:06.681Z,21.28
2023-02-22T03:49:07.736Z,21.17
2023-02-22T03:51:37.466Z,21.28
2023-02-22T03:54:07.292Z,21.02
2023-02-22T03:56:42.969Z,21.14
2023-02-22T03:59:13.002Z,21.15
2023-02-22T04:01:42.774Z,20.99
2023-02-22T04:04:12.619Z,20.81
2023-02-22T04:06:42.363Z,20.79
2023-02-22T04:09:12.099Z,20.96
2023-02-22T04:11:41.814Z,21.19
2023-02-22T04:14:11.559Z,21.36
2023-02-22T04:16:41.461Z,21.76
2023-02-22T04:19:11.276Z,21.92
2023-02-22T04:21:40.986Z,22.00
2023-02-22T04:24:10.654Z,22.09
2023-02-22T04:26:40.396Z,22.14
2023-02-22T04:29:10.102Z,21.88
2023-02-22T04:31:39.794Z,21.64
2023-02-22T04:34:09.518Z,21.94
2023-02-22T04:36:39.219Z,22.22
2023-02-22T04:39:08.841Z,22.48
2023-02-22T04:41:38.466Z,22.64
2023-02-22T04:44:08.214Z,22.82
2023-02-22T04:46:38.034Z,22.92
2023-02-22T04:49:07.795Z,23.13
2023-02-22T04:51:38.413Z,23.25
2023-02-22T04:54:08.149Z,23.44
2023-02-22T04:56:37.960Z,23.60
2023-02-22T04:59:07.756Z,23.67
2023-02-22T05:01:37.938Z,23.79
2023-02-22T05:04:08.698Z,23.97
2023-02-22T05:06:38.360Z,24.01
2023-02-22T05:09:08.060Z,24.11
2023-02-22T05:11:37.721Z,24.16
2023-02-22T05:14:07.476Z,24.27
2023-02-22T05:16:37.554Z,24.35
2023-02-22T05:19:07.262Z,24.42
2023-02-22T05:21:36.977Z,24.51
2023-02-22T05:24:07.553Z,24.57
2023-02-22T05:26:37.309Z,24.60
2023-02-22T05:29:07.312Z,24.66
2023-02-22T05:31:37.060Z,24.75
2023-02-22T05:34:06.842Z,24.79
2023-02-22T05:36:36.567Z,24.83
2023-02-22T05:39:07.104Z,24.78
2023-02-22T05:41:36.788Z,24.87
2023-02-22T05:44:06.780Z,24.92
2023-02-22T05:46:36.538Z,24.95
2023-02-22T05:49:06.493Z,25.01
2023-02-22T05:51:36.326Z,24.99
2023-02-22T05:54:06.030Z,25.00
2023-02-22T05:56:35.753Z,25.05
2023-02-22T05:59:05.476Z,25.13
2023-02-22T06:01:35.119Z,24.99
2023-02-22T06:04:04.842Z,24.76
2023-02-22T06:06:34.578Z,24.70
2023-02-22T06:09:04.347Z,24.48
2023-02-22T06:11:34.016Z,24.41
2023-02-22T06:14:03.777Z,24.47
2023-02-22T06:16:33.495Z,24.43
2023-02-22T06:19:03.470Z,24.38
2023-02-22T06:21:33.042Z,24.40
2023-02-22T06:24:05.682Z,24.23
2023-02-22T06:26:35.276Z,24.17
2023-02-22T06:29:07.447Z,24.07
2023-02-22T06:31:37.041Z,24.00
2023-02-22T06:34:06.847Z,23.90
2023-02-22T06:36:36.476Z,23.83
2023-02-22T06:39:06.133Z,23.77
2023-02-22T06:41:38.903Z,23.72
2023-02-22T06:44:08.533Z,23.69
2023-02-22T06:46:38.549Z,23.58
2023-02-22T06:49:08.238Z,23.52
2023-02-22T06:51:41.915Z,23.48
2023-02-22T06:54:11.616Z,23.43
2023-02-22T06:56:41.230Z,23.39
2023-02-22T06:59:10.870Z,23.37
2023-02-22T07:01:43.334Z,23.30
2023-02-22T07:04:13.910Z,23.22
2023-02-22T07:06:48.533Z,23.22
2023-02-22T07:09:18.886Z,23.19
2023-02-22T07:11:48.514Z,23.12
2023-02-22T07:14:21.343Z,23.09
2023-02-22T07:16:50.956Z,23.06
2023-02-22T07:19:20.633Z,23.04
2023-02-22T07:21:50.356Z,22.98
2023-02-22T07:24:19.916Z,22.89
2023-02-22T07:26:49.482Z,22.92
2023-02-22T07:29:19.122Z,22.93
2023-02-22T07:31:48.811Z,22.87
2023-02-22T07:34:18.484Z,22.80
2023-02-22T07:36:48.168Z,22.79
2023-02-22T07:39:17.753Z,22.77
2023-02-22T07:41:47.534Z,22.73
2023-02-22T07:44:17.173Z,22.69
2023-02-22T07:46:50.483Z,22.67
2023-02-22T07:49:20.251Z,22.64
2023-02-22T07:51:49.897Z,22.62
2023-02-22T07:54:19.492Z,22.60
2023-02-22T07:56:51.962Z,22.60
2023-02-22T07:59:23.233Z,22.58
2023-02-22T08:01:53.023Z,22.53
2023-02-22T08:04:22.646Z,22.56
2023-02-22T08:06:52.395Z,22.55
2023-02-22T08:09:22.124Z,22.49
2023-02-22T08:11:51.883Z,22.49
2023-02-22T08:14:21.582Z,22.46
2023-02-22T08:16:51.275Z,22.46
2023-02-22T08:19:20.905Z,22.46
2023-02-22T08:21:50.536Z,22.46
2023-02-22T08:24:20.106Z,22.42
2023-02-22T08:26:49.895Z,22.41
2023-02-22T08:29:19.594Z,22.39
2023-02-22T08:31:55.667Z,22.38
2023-02-22T08:34:26.341Z,22.37
2023-02-22T08:36:56.268Z,22.36
2023-02-22T08:39:26.002Z,22.32
2023-02-22T08:41:55.587Z,22.28
2023-02-22T08:44:25.805Z,22.26
2023-02-22T08:46:55.439Z,22.21
2023-02-22T08:49:25.073Z,22.19
2023-02-22T08:51:54.684Z,22.16
2023-02-22T08:54:24.421Z,22.14
2023-02-22T08:56:54.078Z,22.10
2023-02-22T08:59:23.770Z,22.01
2023-02-22T09:01:53.508Z,22.05
2023-02-22T09:04:23.258Z,21.96
2023-02-22T09:06:53.431Z,21.99
2023-02-22T09:09:23.295Z,21.98
2023-02-22T09:11:53.258Z,21.99
2023-02-22T09:14:23.094Z,21.98
2023-02-22T09:16:52.804Z,21.97
2023-02-22T09:19:22.481Z,21.97
2023-02-22T09:21:58.556Z,21.91
2023-02-22T09:24:28.318Z,21.94
2023-02-22T09:26:57.975Z,21.87
2023-02-22T09:29:28.390Z,21.84
2023-02-22T09:31:58.418Z,21.84
2023-02-22T09:34:36.865Z,21.81
2023-02-22T09:37:10.233Z,21.81
2023-02-22T09:39:41.006Z,21.76
2023-02-22T09:42:29.177Z,21.80
2023-02-22T09:45:16.325Z,21.82
2023-02-22T09:47:59.748Z,21.81
2023-02-22T09:50:49.835Z,21.79
2023-02-22T09:53:37.647Z,21.74
2023-02-22T09:56:19.449Z,21.76
2023-02-22T09:58:51.560Z,21.76
2023-02-22T10:01:47.423Z,21.69
2023-02-22T10:04:32.568Z,21.69
2023-02-22T10:07:38.622Z,21.69
2023-02-22T10:10:08.637Z,21.70
2023-02-22T10:13:03.380Z,21.68
2023-02-22T10:15:50.861Z,21.63
2023-02-22T10:18:29.992Z,21.64
2023-02-22T10:21:12.323Z,21.63
2023-02-22T10:23:55.154Z,21.60
2023-02-22T10:26:37.860Z,21.58
2023-02-22T10:29:23.693Z,21.53
2023-02-22T10:31:58.936Z,21.51
2023-02-22T10:34:30.134Z,21.51
2023-02-22T10:37:27.017Z,21.53
2023-02-22T10:40:01.767Z,21.57
2023-02-22T10:42:31.437Z,21.56
2023-02-22T10:45:01.319Z,21.53
2023-02-22T10:47:30.957Z,21.53
2023-02-22T10:50:02.029Z,21.54
2023-02-22T10:52:35.393Z,21.50
2023-02-22T10:55:14.978Z,21.55
2023-02-22T10:57:48.695Z,21.50
2023-02-22T11:00:32.057Z,21.52
2023-02-22T11:03:03.059Z,21.25
2023-02-22T11:05:38.412Z,21.08
2023-02-22T11:08:28.081Z,21.08
2023-02-22T11:11:18.388Z,21.09
2023-02-22T11:13:48.869Z,20.98
2023-02-22T11:16:31.413Z,21.00
2023-02-22T11:19:34.289Z,20.97
2023-02-22T11:22:16.350Z,20.94
2023-02-22T11:24:59.638Z,20.86
2023-02-22T11:27:34.137Z,20.87
2023-02-22T11:30:28.284Z,20.82
2023-02-22T11:33:02.937Z,20.85
2023-02-22T11:35:36.855Z,20.86
2023-02-22T11:38:24.046Z,20.81
2023-02-22T11:41:09.529Z,20.82
2023-02-22T11:43:39.227Z,20.76
2023-02-22T11:46:19.104Z,20.79
2023-02-22T11:49:00.460Z,20.85
2023-02-22T11:51:53.931Z,20.86
2023-02-22T11:54:42.347Z,20.79
2023-02-22T11:57:30.193Z,20.83
2023-02-22T12:00:26.356Z,20.86
2023-02-22T12:03:32.154Z,20.80
2023-02-22T12:06:17.436Z,20.84
2023-02-22T12:09:09.630Z,20.76
2023-02-22T12:12:18.610Z,20.73
2023-02-22T12:14:57.221Z,20.78
2023-02-22T12:18:00.269Z,20.85
2023-02-22T12:20:47.281Z,20.78
2023-02-22T12:23:33.183Z,20.79
2023-02-22T12:26:21.892Z,20.80
2023-02-22T12:29:19.546Z,20.81
2023-02-22T12:31:52.633Z,20.73
2023-02-22T12:34:28.783Z,20.70
2023-02-22T12:37:19.010Z,20.69
2023-02-22T12:40:10.103Z,20.69
2023-02-22T12:42:57.803Z,20.73
2023-02-22T12:45:36.360Z,20.71
2023-02-22T12:48:23.098Z,20.64
2023-02-22T12:50:56.666Z,20.66
2023-02-22T12:53:45.332Z,20.69
2023-02-22T12:56:23.978Z,20.68
2023-02-22T12:59:09.915Z,20.58
2023-02-22T13:01:44.424Z,20.60
2023-02-22T13:04:20.833Z,20.58
2023-02-22T13:07:09.402Z,20.58
2023-02-22T13:09:53.913Z,20.51
2023-02-22T13:12:42.485Z,20.61
2023-02-22T13:15:21.718Z,20.64
2023-02-22T13:18:17.239Z,20.56
2023-02-22T13:21:02.034Z,20.56
2023-02-22T13:23:50.317Z,20.59
2023-02-22T13:27:00.975Z,20.56
2023-02-22T13:29:36.884Z,20.52
2023-02-22T13:32:09.576Z,20.49
2023-02-22T13:35:17.828Z,20.45
2023-02-22T13:38:37.610Z,20.48
2023-02-22T13:41:28.665Z,20.51
2023-02-22T13:44:15.122Z,20.51
2023-02-22T13:47:06.050Z,20.54
2023-02-22T13:50:01.493Z,20.40
2023-02-22T13:52:33.231Z,20.37
2023-02-22T13:55:04.684Z,20.38
2023-02-22T13:57:53.196Z,20.39
2023-02-22T14:00:25.182Z,20.39
2023-02-22T14:03:05.019Z,20.30
2023-02-22T14:05:43.872Z,20.27
2023-02-22T14:08:16.523Z,20.31
2023-02-22T14:11:02.316Z,20.33
2023-02-22T14:14:02.232Z,20.32
2023-02-22T14:16:32.761Z,20.32
2023-02-22T14:19:17.429Z,20.28
2023-02-22T14:22:06.994Z,20.31
2023-02-22T14:24:48.321Z,20.26
2023-02-22T14:27:19.089Z,20.29
2023-02-22T14:29:59.712Z,20.25
2023-02-22T14:32:36.806Z,20.33
2023-02-22T14:35:28.797Z,20.21
2023-02-22T14:38:03.040Z,20.24
2023-02-22T14:40:33.754Z,20.24
2023-02-22T14:43:16.883Z,20.18
2023-02-22T14:45:55.449Z,20.16
2023-02-22T14:48:44.417Z,20.18
2023-02-22T14:51:27.243Z,20.20
2023-02-22T14:54:04.106Z,20.09
2023-02-22T14:57:16.238Z,20.15
2023-02-22T15:00:21.347Z,20.17
2023-02-22T15:02:52.300Z,20.17
2023-02-22T15:05:22.363Z,20.15
2023-02-22T15:08:02.905Z,20.15
2023-02-22T15:10:38.919Z,20.22
2023-02-22T15:13:12.086Z,20.22
2023-02-22T15:15:52.285Z,20.07
2023-02-22T15:18:52.290Z,20.08
2023-02-22T15:21:23.955Z,20.14
2023-02-22T15:23:58.123Z,20.13
2023-02-22T15:26:59.049Z,20.08
2023-02-22T15:29:39.011Z,20.08
2023-02-22T15:32:36.001Z,20.07
2023-02-22T15:35:25.043Z,20.13
2023-02-22T15:38:13.570Z,20.10
2023-02-22T15:40:47.361Z,20.06
2023-02-22T15:43:30.137Z,20.01
2023-02-22T15:46:00.085Z,20.02
2023-02-22T15:48:32.672Z,20.02
2023-02-22T15:51:08.217Z,20.08
2023-02-22T15:53:42.361Z,20.02
2023-02-22T15:56:17.477Z,20.00
2023-02-22T15:58:48.264Z,19.92
2023-02-22T16:01:20.472Z,19.98
2023-02-22T16:03:55.667Z,19.95
2023-02-22T16:06:38.512Z,19.93
2023-02-22T16:09:16.702Z,19.89
2023-02-22T16:11:47.448Z,19.83
2023-02-22T16:14:44.074Z,19.80
2023-02-22T16:17:32.344Z,19.89
2023-02-22T16:20:26.453Z,19.90
2023-02-22T16:22:59.212Z,19.85
2023-02-22T16:25:34.322Z,19.89
2023-02-22T16:28:07.782Z,19.83
2023-02-22T16:30:43.392Z,19.87
2023-02-22T16:33:18.071Z,19.84
2023-02-22T16:35:53.393Z,19.80
2023-02-22T16:38:22.969Z,19.87
2023-02-22T16:40:59.927Z,19.79
2023-02-22T16:43:34.340Z,19.83
2023-02-22T16:46:04.379Z,19.86
2023-02-22T16:48:34.796Z,19.82
2023-02-22T16:51:22.499Z,19.76
2023-02-22T16:53:52.247Z,19.84
2023-02-22T16:56:22.892Z,19.88
2023-02-22T16:58:54.363Z,19.85
2023-02-22T17:01:26.831Z,19.83
2023-02-22T17:03:56.616Z,19.76
2023-02-22T17:06:26.346Z,19.77
2023-02-22T17:08:55.947Z,19.79
2023-02-22T17:11:25.707Z,19.71
2023-02-22T17:13:55.363Z,19.68
2023-02-22T17:16:25.229Z,19.79
2023-02-22T17:18:54.965Z,19.70
2023-02-22T17:21:24.707Z,19.71
2023-02-22T17:23:54.392Z,19.70
2023-02-22T17:26:25.456Z,19.67
2023-02-22T17:28:55.144Z,19.63
2023-02-22T17:31:26.700Z,19.68
2023-02-22T17:33:56.602Z,19.61
2023-02-22T17:36:26.197Z,19.59
2023-02-22T17:38:55.955Z,19.54
2023-02-22T17:41:25.562Z,19.56
2023-02-22T17:43:55.875Z,19.56
2023-02-22T17:46:26.768Z,19.56
2023-02-22T17:48:56.515Z,19.55
2023-02-22T17:51:27.632Z,19.57
2023-02-22T17:53:57.226Z,19.55
2023-02-22T17:56:27.092Z,19.57
2023-02-22T17:58:57.226Z,19.54
2023-02-22T18:01:33.138Z,19.51
2023-02-22T18:04:03.810Z,19.52
2023-02-22T18:06:34.243Z,19.50
2023-02-22T18:09:11.609Z,19.52
2023-02-22T18:11:41.619Z,19.50
2023-02-22T18:14:13.757Z,19.53
2023-02-22T18:16:43.958Z,19.58
2023-02-22T18:19:13.709Z,19.60
2023-02-22T18:21:43.384Z,19.54
2023-02-22T18:24:13.065Z,19.47
2023-02-22T18:26:42.785Z,19.47
2023-02-22T18:29:13.803Z,19.44
2023-02-22T18:31:45.916Z,19.40
2023-02-22T18:34:17.256Z,19.44
2023-02-22T18:36:46.974Z,19.52
2023-02-22T18:39:16.633Z,19.48
2023-02-22T18:41:50.293Z,19.50
2023-02-22T18:44:20.159Z,19.51
2023-02-22T18:49:35.439Z,19.51
2023-02-22T18:52:05.162Z,19.44
2023-02-22T18:54:34.822Z,19.44
2023-02-22T18:57:04.420Z,19.42
2023-02-22T18:59:34.116Z,19.45
2023-02-22T19:02:04.170Z,19.37
2023-02-22T19:04:33.918Z,19.44
2023-02-22T19:07:03.517Z,19.36
2023-02-22T19:09:33.449Z,19.44
2023-02-22T19:12:03.046Z,19.38
2023-02-22T19:14:32.769Z,19.36
2023-02-22T19:17:04.301Z,19.37
2023-02-22T19:19:33.932Z,19.26
2023-02-22T19:22:03.625Z,19.31
2023-02-22T19:24:33.277Z,19.33
2023-02-22T19:27:03.166Z,19.34
2023-02-22T19:29:32.875Z,19.27
2023-02-22T19:32:02.537Z,19.28
2023-02-22T19:34:32.892Z,19.31
2023-02-22T19:37:02.704Z,19.26
2023-02-22T19:39:32.315Z,19.29
2023-02-22T19:42:02.260Z,19.24
2023-02-22T19:44:31.941Z,19.30
2023-02-22T19:47:01.710Z,19.25
2023-02-22T19:49:31.691Z,19.25
2023-02-22T19:52:01.422Z,19.27
2023-02-22T19:54:31.190Z,19.26
2023-02-22T19:57:00.904Z,19.21
2023-02-22T19:59:30.841Z,19.19
2023-02-22T20:02:00.544Z,19.48
2023-02-22T20:04:32.296Z,19.60
2023-02-22T20:07:02.005Z,19.66
2023-02-22T20:09:37.781Z,19.69
2023-02-22T20:12:08.024Z,19.72
2023-02-22T20:14:37.867Z,19.68
2023-02-22T20:17:09.263Z,19.58
2023-02-22T20:19:40.302Z,19.60
2023-02-22T20:22:10.117Z,19.58
2023-02-22T20:24:40.281Z,19.64
2023-02-22T20:27:10.716Z,19.56
2023-02-22T20:29:40.334Z,19.55
2023-02-22T20:32:12.010Z,19.58
2023-02-22T20:34:42.795Z,19.60
2023-02-22T20:37:12.390Z,19.56
2023-02-22T20:39:42.735Z,19.53
2023-02-22T20:42:13.172Z,19.48
2023-02-22T20:44:42.880Z,19.45
2023-02-22T20:47:12.476Z,19.43
2023-02-22T20:49:42.154Z,19.42
2023-02-22T20:52:12.119Z,19.37
2023-02-22T20:54:41.766Z,19.44
2023-02-22T20:57:11.395Z,19.40
2023-02-22T20:59:41.127Z,19.40
2023-02-22T21:02:12.189Z,19.39
2023-02-22T21:04:41.924Z,19.48
2023-02-22T21:07:11.509Z,19.58
2023-02-22T21:09:41.919Z,19.59
2023-02-22T21:12:14.985Z,20.17
2023-02-22T21:14:45.807Z,20.53
2023-02-22T21:17:15.378Z,20.96
2023-02-22T21:19:45.447Z,21.06
2023-02-22T21:22:15.945Z,21.41
2023-02-22T21:24:45.650Z,21.79
2023-02-22T21:27:15.276Z,21.75
2023-02-22T21:29:45.061Z,21.80
2023-02-22T21:32:15.482Z,22.38
2023-02-22T21:34:45.241Z,22.57
2023-02-22T21:37:21.958Z,22.89
2023-02-22T21:39:51.756Z,22.79
2023-02-22T21:42:21.421Z,22.86
2023-02-22T21:44:55.887Z,23.12
2023-02-22T21:47:25.963Z,23.22
2023-02-22T21:49:55.556Z,23.23
2023-02-22T21:52:27.189Z,23.44
2023-02-22T21:54:56.908Z,23.55
2023-02-22T21:57:27.773Z,23.52
2023-02-22T21:59:57.435Z,23.48
2023-02-22T22:02:27.220Z,23.59
2023-02-22T22:04:57.920Z,23.55
2023-02-22T22:07:27.622Z,23.51
2023-02-22T22:09:58.282Z,23.34
2023-02-22T22:12:38.775Z,23.40
2023-02-22T22:15:09.424Z,23.44
2023-02-22T22:17:39.090Z,23.51
2023-02-22T22:20:11.946Z,23.56
2023-02-22T22:22:42.991Z,23.56
2023-02-22T22:25:14.016Z,23.96
2023-02-22T22:27:43.659Z,24.14
2023-02-22T22:30:14.810Z,24.23
2023-02-22T22:32:44.843Z,24.00
2023-02-22T22:35:16.176Z,24.14
2023-02-22T22:37:48.763Z,24.31
2023-02-22T22:40:18.662Z,24.39
2023-02-22T22:42:48.740Z,24.88
2023-02-22T22:45:19.647Z,24.85
2023-02-22T22:47:49.832Z,24.84
2023-02-22T22:50:27.955Z,24.83
2023-02-22T22:52:58.388Z,24.70
2023-02-22T22:55:28.194Z,24.41
2023-02-22T22:57:57.931Z,24.46
2023-02-22T23:00:39.952Z,24.49
2023-02-22T23:03:11.095Z,24.48
2023-02-22T23:05:45.297Z,24.36
2023-02-22T23:08:14.586Z,24.38
2023-02-22T23:10:44.483Z,24.38
2023-02-22T23:13:17.160Z,24.46
2023-02-22T23:15:50.122Z,24.37
2023-02-22T23:18:22.709Z,24.13
2023-02-22T23:20:56.730Z,24.00
2023-02-22T23:23:29.334Z,24.30
2023-02-22T23:26:13.078Z,24.11
2023-02-22T23:28:43.066Z,24.11
2023-02-22T23:31:15.522Z,24.16
2023-02-22T23:33:46.091Z,24.13
2023-02-22T23:36:16.789Z,24.46
2023-02-22T23:38:46.646Z,24.46
2023-02-22T23:41:18.036Z,24.64
2023-02-22T23:43:48.033Z,24.50
2023-02-22T23:46:19.999Z,24.46
2023-02-22T23:48:54.249Z,24.34
2023-02-22T23:51:26.914Z,24.47
2023-02-22T23:53:59.404Z,24.49
2023-02-22T23:56:30.000Z,24.66
2023-02-22T23:58:59.763Z,24.49
